createdAt,value
2023-09-06T00:10:41.602Z,18.32
2023-09-06T00:25:45.290Z,18.02
2023-09-06T00:40:51.498Z,17.83
2023-09-06T00:55:55.039Z,17.71
2023-09-06T01:11:20.460Z,17.65
2023-09-06T01:26:24.196Z,17.51
2023-09-06T01:41:27.413Z,17.42
2023-09-06T01:56:30.867Z,17.12
2023-09-06T02:11:35.579Z,16.88
2023-09-06T02:26:38.770Z,16.63
2023-09-06T02:41:42.053Z,16.74
2023-09-06T02:56:47.124Z,16.64
2023-09-06T03:11:53.105Z,16.49
2023-09-06T03:26:56.320Z,16.38
2023-09-06T03:42:02.412Z,16.27
2023-09-06T03:57:05.980Z,16.22
2023-09-06T04:12:09.464Z,16.25
2023-09-06T04:27:13.758Z,16.22
2023-09-06T04:42:17.283Z,16.28
2023-09-06T04:57:22.304Z,16.44
2023-09-06T05:12:25.672Z,16.70
2023-09-06T05:27:29.169Z,17.01
2023-09-06T05:42:32.793Z,17.47
2023-09-06T05:57:36.737Z,20.40
2023-09-06T06:12:40.684Z,25.21
2023-09-06T06:27:44.137Z,28.52
2023-09-06T06:42:47.424Z,29.87
2023-09-06T06:57:50.887Z,30.50
2023-09-06T07:12:54.152Z,30.91
2023-09-06T07:27:59.534Z,31.50
2023-09-06T07:43:02.698Z,31.31
2023-09-06T07:58:05.842Z,31.37
2023-09-06T08:13:08.942Z,31.67
2023-09-06T08:28:15.785Z,32.76
2023-09-06T08:43:20.168Z,32.97
2023-09-06T08:58:23.920Z,32.36
2023-09-06T09:13:27.506Z,32.14
2023-09-06T09:28:35.027Z,32.71
2023-09-06T09:43:38.491Z,33.99
2023-09-06T09:58:41.836Z,33.86
2023-09-06T10:13:45.408Z,33.02
2023-09-06T10:28:56.978Z,33.05
2023-09-06T10:44:00.364Z,33.10
2023-09-06T10:59:05.748Z,33.58
2023-09-06T11:14:08.997Z,33.27
2023-09-06T11:29:16.197Z,32.82
2023-09-06T11:44:20.754Z,33.07
2023-09-06T11:59:26.063Z,32.59
2023-09-06T12:14:32.452Z,33.21
2023-09-06T12:29:36.802Z,33.51
2023-09-06T12:44:40.011Z,33.89
2023-09-06T12:59:43.262Z,33.69
2023-09-06T13:14:46.529Z,32.59
2023-09-06T13:29:56.468Z,32.90
2023-09-06T13:45:00.347Z,32.18
2023-09-06T14:00:07.031Z,32.20
2023-09-06T14:15:11.016Z,31.77
2023-09-06T14:30:15.150Z,30.94
2023-09-06T14:45:18.974Z,30.94
2023-09-06T15:00:23.549Z,31.88
2023-09-06T15:15:30.489Z,32.04
2023-09-06T15:30:34.056Z,31.42
2023-09-06T15:45:37.920Z,30.68
2023-09-06T16:00:43.107Z,30.76
2023-09-06T16:15:48.085Z,30.24
2023-09-06T16:30:51.383Z,29.11
2023-09-06T16:45:54.864Z,28.30
2023-09-06T17:00:58.672Z,27.65
2023-09-06T17:16:02.458Z,26.98
2023-09-06T17:31:06.799Z,26.27
2023-09-06T17:46:11.063Z,25.54
2023-09-06T18:01:16.168Z,24.88
2023-09-06T18:16:21.396Z,24.28
2023-09-06T18:31:26.442Z,23.75
2023-09-06T18:46:31.115Z,23.25
2023-09-06T19:01:37.331Z,22.87
2023-09-06T19:16:41.656Z,22.49
2023-09-06T19:31:46.093Z,22.15
2023-09-06T19:46:50.222Z,21.86
2023-09-06T20:01:55.838Z,21.75
2023-09-06T20:16:59.509Z,21.38
2023-09-06T20:32:03.381Z,21.20
2023-09-06T20:47:10.220Z,20.98
2023-09-06T21:02:13.617Z,20.74
2023-09-06T21:17:16.839Z,20.57
2023-09-06T21:32:20.009Z,20.47
2023-09-06T21:47:24.201Z,20.47
2023-09-06T22:02:27.370Z,20.28
2023-09-06T22:17:49.086Z,20.00
2023-09-06T22:32:52.350Z,19.75
2023-09-06T22:47:55.434Z,19.36
2023-09-06T23:02:58.485Z,19.27
2023-09-06T23:18:01.790Z,19.07
2023-09-06T23:33:13.317Z,18.90
2023-09-06T23:48:17.293Z,18.61
